createdAt,value
2022-08-19T00:00:54.856Z,47.71
2022-08-19T00:01:54.840Z,48.41
2022-08-19T00:02:55.217Z,48.72
2022-08-19T00:03:54.821Z,48.52
2022-08-19T00:04:54.886Z,48.61
2022-08-19T00:05:54.800Z,48.41
2022-08-19T00:06:54.791Z,48.72
2022-08-19T00:07:54.788Z,48.72
2022-08-19T00:08:54.770Z,48.92
2022-08-19T00:09:54.758Z,48.92
2022-08-19T00:10:54.751Z,48.82
2022-08-19T00:11:54.736Z,48.32
2022-08-19T00:12:54.726Z,48.92
2022-08-19T00:13:56.377Z,48.32
2022-08-19T00:14:54.708Z,48.01
2022-08-19T00:15:54.696Z,48.52
2022-08-19T00:16:54.687Z,49.02
2022-08-19T00:17:54.674Z,48.92
2022-08-19T00:18:54.669Z,49.02
2022-08-19T00:19:54.653Z,48.72
2022-08-19T00:20:54.645Z,47.81
2022-08-19T00:21:54.634Z,48.52
2022-08-19T00:22:54.749Z,48.72
2022-08-19T00:23:54.613Z,48.52
2022-08-19T00:24:54.603Z,48.01
2022-08-19T00:25:54.594Z,47.61
2022-08-19T00:26:54.584Z,46.60
2022-08-19T00:27:54.568Z,47.41
2022-08-19T00:28:54.562Z,47.51
2022-08-19T00:29:54.561Z,47.20
2022-08-19T00:30:54.542Z,48.01
2022-08-19T00:31:54.527Z,48.32
2022-08-19T00:32:54.615Z,48.92
2022-08-19T00:33:54.507Z,48.72
2022-08-19T00:34:54.577Z,50.02
2022-08-19T00:35:55.982Z,48.94
2022-08-19T00:36:54.479Z,48.41
2022-08-19T00:37:54.466Z,48.41
2022-08-19T00:38:54.455Z,47.20
2022-08-19T00:39:54.484Z,48.11
2022-08-19T00:40:54.448Z,48.01
2022-08-19T00:41:54.424Z,48.41
2022-08-19T00:42:54.413Z,48.72
2022-08-19T00:43:54.401Z,49.32
2022-08-19T00:44:54.394Z,49.52
2022-08-19T00:45:54.381Z,49.02
2022-08-19T00:46:57.903Z,49.52
2022-08-19T00:47:54.361Z,49.62
2022-08-19T00:48:54.352Z,49.12
2022-08-19T00:49:54.341Z,48.82
2022-08-19T00:50:54.330Z,48.61
2022-08-19T00:51:54.321Z,49.22
2022-08-19T00:52:54.502Z,49.42
2022-08-19T00:53:54.299Z,50.02
2022-08-19T00:54:54.293Z,49.32
2022-08-19T00:55:54.277Z,48.82
2022-08-19T00:56:54.272Z,49.62
2022-08-19T00:57:54.263Z,49.82
2022-08-19T00:58:54.246Z,49.93
2022-08-19T01:00:01.753Z,49.73
2022-08-19T01:00:54.227Z,49.32
2022-08-19T01:01:54.237Z,48.92
2022-08-19T01:02:54.407Z,49.62
2022-08-19T01:03:54.199Z,48.82
2022-08-19T01:04:54.187Z,49.42
2022-08-19T01:05:54.173Z,50.83
2022-08-19T01:06:54.170Z,51.23
2022-08-19T01:07:54.150Z,50.63
2022-08-19T01:08:54.147Z,50.43
2022-08-19T01:09:54.134Z,50.83
2022-08-19T01:10:54.120Z,50.73
2022-08-19T01:11:54.121Z,49.12
2022-08-19T01:12:54.233Z,49.52
2022-08-19T01:13:54.090Z,49.52
2022-08-19T01:14:54.078Z,49.93
2022-08-19T01:15:54.070Z,50.23
2022-08-19T01:16:54.058Z,50.91
2022-08-19T01:17:54.046Z,50.93
2022-08-19T01:18:54.037Z,51.14
2022-08-19T01:19:54.025Z,51.43
2022-08-19T01:20:54.015Z,51.54
2022-08-19T01:21:54.005Z,51.34
2022-08-19T01:22:54.226Z,50.83
2022-08-19T01:23:53.982Z,50.73
2022-08-19T01:24:53.973Z,50.43
2022-08-19T01:25:53.960Z,52.14
2022-08-19T01:26:53.956Z,52.34
2022-08-19T01:27:53.940Z,52.24
2022-08-19T01:28:53.930Z,52.04
2022-08-19T01:29:53.921Z,52.34
2022-08-19T01:30:53.908Z,52.14
2022-08-19T01:31:53.896Z,51.43
2022-08-19T01:32:54.024Z,51.84
2022-08-19T01:33:53.874Z,52.24
2022-08-19T01:34:53.865Z,52.04
2022-08-19T01:35:53.854Z,51.23
2022-08-19T01:36:53.944Z,51.71
2022-08-19T01:37:53.832Z,51.73
2022-08-19T01:38:53.823Z,52.24
2022-08-19T01:39:53.863Z,52.72
2022-08-19T01:40:53.801Z,52.74
2022-08-19T01:41:53.791Z,52.31
2022-08-19T01:42:54.074Z,52.22
2022-08-19T01:44:13.643Z,52.42
2022-08-19T01:44:53.760Z,52.54
2022-08-19T01:45:53.748Z,51.34
2022-08-19T01:46:53.744Z,51.71
2022-08-19T01:48:01.897Z,52.22
2022-08-19T01:48:54.744Z,51.93
2022-08-19T01:49:53.707Z,52.34
2022-08-19T01:50:53.697Z,52.14
2022-08-19T01:51:53.687Z,51.93
2022-08-19T01:52:53.851Z,51.03
2022-08-19T01:53:54.688Z,51.84
2022-08-19T01:54:53.654Z,51.84
2022-08-19T01:55:53.643Z,51.54
2022-08-19T01:56:53.631Z,51.73
2022-08-19T01:57:53.629Z,51.93
2022-08-19T01:58:53.610Z,51.84
2022-08-19T01:59:53.600Z,52.24
2022-08-19T02:00:53.588Z,52.14
2022-08-19T02:01:53.621Z,52.04
2022-08-19T02:02:53.795Z,51.93
2022-08-19T02:03:53.557Z,51.84
2022-08-19T02:04:53.549Z,51.84
2022-08-19T02:05:53.535Z,51.43
2022-08-19T02:06:53.526Z,51.03
2022-08-19T02:07:53.514Z,50.83
2022-08-19T02:08:53.505Z,50.83
2022-08-19T02:09:53.495Z,50.83
2022-08-19T02:10:53.486Z,51.43
2022-08-19T02:11:53.471Z,51.14
2022-08-19T02:12:53.686Z,51.34
2022-08-19T02:13:53.453Z,51.93
2022-08-19T02:14:53.445Z,51.43
2022-08-19T02:15:53.431Z,51.03
2022-08-19T02:16:53.424Z,51.14
2022-08-19T02:17:53.411Z,51.43
2022-08-19T02:18:53.402Z,51.23
2022-08-19T02:19:53.389Z,50.83
2022-08-19T02:20:53.382Z,50.93
2022-08-19T02:21:53.370Z,50.83
2022-08-19T02:22:53.462Z,50.93
2022-08-19T02:23:53.351Z,51.23
2022-08-19T02:24:53.336Z,51.01
2022-08-19T02:25:53.328Z,51.23
2022-08-19T02:26:53.317Z,51.51
2022-08-19T02:27:53.306Z,51.61
2022-08-19T02:28:53.295Z,51.31
2022-08-19T02:29:53.284Z,52.04
2022-08-19T02:30:53.280Z,51.81
2022-08-19T02:31:53.262Z,51.73
2022-08-19T02:32:53.252Z,51.51
2022-08-19T02:33:53.242Z,51.34
2022-08-19T02:34:53.234Z,51.51
2022-08-19T02:35:53.221Z,50.73
2022-08-19T02:36:53.209Z,50.43
2022-08-19T02:37:53.198Z,50.83
2022-08-19T02:38:54.835Z,51.03
2022-08-19T02:39:53.221Z,50.73
2022-08-19T02:40:53.180Z,50.53
2022-08-19T02:41:53.157Z,50.23
2022-08-19T02:42:53.303Z,50.13
2022-08-19T02:44:28.564Z,49.82
2022-08-19T02:44:54.149Z,49.42
2022-08-19T02:45:53.116Z,50.73
2022-08-19T02:46:53.112Z,49.93
2022-08-19T02:47:53.093Z,50.23
2022-08-19T02:48:53.082Z,50.73
2022-08-19T02:49:53.080Z,50.02
2022-08-19T02:50:53.650Z,49.82
2022-08-19T02:51:53.052Z,49.32
2022-08-19T02:52:53.159Z,49.52
2022-08-19T02:53:53.032Z,49.52
2022-08-19T02:54:53.020Z,49.62
2022-08-19T02:55:53.015Z,49.52
2022-08-19T02:56:53.001Z,49.62
2022-08-19T02:57:52.989Z,49.73
2022-08-19T02:58:52.978Z,49.62
2022-08-19T02:59:52.971Z,51.23
2022-08-19T03:00:53.046Z,53.14
2022-08-19T03:01:52.948Z,53.45
2022-08-19T03:02:53.372Z,53.75
2022-08-19T03:03:52.940Z,53.14
2022-08-19T03:04:52.914Z,52.44
2022-08-19T03:05:57.195Z,51.84
2022-08-19T03:06:52.894Z,52.04
2022-08-19T03:07:52.884Z,51.26
2022-08-19T03:08:52.872Z,58.11
2022-08-19T03:09:52.862Z,57.40
2022-08-19T03:10:52.851Z,57.40
2022-08-19T03:11:52.866Z,57.00
2022-08-19T03:12:52.924Z,55.79
2022-08-19T03:13:52.818Z,55.39
2022-08-19T03:14:52.804Z,54.48
2022-08-19T03:15:52.800Z,53.98
2022-08-19T03:16:52.783Z,53.98
2022-08-19T03:17:52.778Z,53.65
2022-08-19T03:18:52.764Z,52.77
2022-08-19T03:19:52.754Z,52.57
2022-08-19T03:20:52.741Z,52.77
2022-08-19T03:21:52.736Z,52.37
2022-08-19T03:22:52.857Z,52.06
2022-08-19T03:23:52.715Z,51.76
2022-08-19T03:24:52.700Z,51.76
2022-08-19T03:25:58.135Z,51.46
2022-08-19T03:26:52.677Z,51.76
2022-08-19T03:27:52.666Z,51.89
2022-08-19T03:28:58.011Z,51.56
2022-08-19T03:29:52.646Z,51.18
2022-08-19T03:30:52.634Z,51.38
2022-08-19T03:31:52.986Z,50.88
2022-08-19T03:32:57.126Z,50.57
2022-08-19T03:33:52.603Z,50.17
2022-08-19T03:34:52.594Z,50.07
2022-08-19T03:35:52.584Z,49.57
2022-08-19T03:36:52.570Z,48.56
2022-08-19T03:37:52.560Z,48.26
2022-08-19T03:38:59.552Z,48.18
2022-08-19T03:39:53.660Z,47.96
2022-08-19T03:40:52.527Z,47.86
2022-08-19T03:42:32.503Z,47.98
2022-08-19T03:42:52.506Z,47.17
2022-08-19T03:43:52.496Z,46.97
2022-08-19T03:44:52.482Z,46.67
2022-08-19T03:45:52.472Z,46.37
2022-08-19T03:46:52.463Z,46.06
2022-08-19T03:47:52.526Z,46.77
2022-08-19T03:48:52.505Z,45.36
2022-08-19T03:49:52.452Z,44.95
2022-08-19T03:50:52.417Z,44.85
2022-08-19T03:51:52.405Z,44.65
2022-08-19T03:52:52.618Z,45.16
2022-08-19T03:53:52.382Z,44.37
2022-08-19T03:54:52.372Z,44.15
2022-08-19T03:55:52.366Z,43.14
2022-08-19T03:56:52.349Z,42.55
2022-08-19T03:57:54.273Z,42.46
2022-08-19T03:58:52.325Z,42.66
2022-08-19T03:59:52.318Z,43.37
2022-08-19T04:00:52.367Z,42.05
2022-08-19T04:01:52.295Z,42.15
2022-08-19T04:02:58.065Z,42.55
2022-08-19T04:03:53.303Z,42.35
2022-08-19T04:04:52.263Z,42.25
2022-08-19T04:05:52.250Z,41.95
2022-08-19T04:06:52.250Z,42.05
2022-08-19T04:07:52.233Z,41.87
2022-08-19T04:08:52.291Z,40.44
2022-08-19T04:09:52.280Z,40.16
2022-08-19T04:10:52.399Z,39.04
2022-08-19T04:11:52.309Z,38.95
2022-08-19T04:12:52.442Z,38.64
2022-08-19T04:13:52.318Z,38.64
2022-08-19T04:14:52.152Z,39.35
2022-08-19T04:15:52.141Z,38.95
2022-08-19T04:16:52.126Z,38.44
2022-08-19T04:17:52.118Z,37.53
2022-08-19T04:18:52.105Z,37.43
2022-08-19T04:19:52.101Z,37.04
2022-08-19T04:20:52.083Z,37.35
2022-08-19T04:21:52.075Z,36.84
2022-08-19T04:22:52.467Z,37.45
2022-08-19T04:23:52.058Z,36.84
2022-08-19T04:24:52.041Z,34.82
2022-08-19T04:25:52.034Z,35.73
2022-08-19T04:26:52.022Z,35.13
2022-08-19T04:27:52.007Z,34.82
2022-08-19T04:28:52.004Z,34.92
2022-08-19T04:29:51.991Z,34.62
2022-08-19T04:30:51.975Z,35.13
2022-08-19T04:31:51.965Z,35.41
2022-08-19T04:32:52.153Z,35.82
2022-08-19T04:33:51.943Z,35.92
2022-08-19T04:35:01.570Z,35.92
2022-08-19T04:35:52.947Z,36.02
2022-08-19T04:36:51.912Z,36.12
2022-08-19T04:37:51.899Z,36.12
2022-08-19T04:38:51.889Z,35.82
2022-08-19T04:39:51.921Z,36.02
2022-08-19T04:40:53.013Z,35.72
2022-08-19T04:41:51.857Z,35.82
2022-08-19T04:42:52.165Z,35.82
2022-08-19T04:43:51.834Z,34.91
2022-08-19T04:44:51.824Z,35.52
2022-08-19T04:45:51.840Z,35.92
2022-08-19T04:46:52.060Z,35.01
2022-08-19T04:47:58.310Z,34.61
2022-08-19T04:48:52.805Z,35.21
2022-08-19T04:49:51.788Z,34.30
2022-08-19T04:50:51.765Z,34.20
2022-08-19T04:51:51.749Z,35.21
2022-08-19T04:52:51.995Z,36.32
2022-08-19T04:53:51.725Z,36.32
2022-08-19T04:54:51.719Z,37.02
2022-08-19T04:55:51.705Z,37.43
2022-08-19T04:56:51.692Z,37.63
2022-08-19T04:57:51.697Z,38.44
2022-08-19T04:58:51.665Z,38.34
2022-08-19T04:59:51.661Z,38.44
2022-08-19T05:00:51.752Z,38.95
2022-08-19T05:01:51.638Z,38.75
2022-08-19T05:02:51.746Z,39.45
2022-08-19T05:03:51.623Z,39.73
2022-08-19T05:04:51.602Z,40.23
2022-08-19T05:05:51.596Z,40.36
2022-08-19T05:06:51.579Z,40.44
2022-08-19T05:07:51.568Z,39.65
2022-08-19T05:08:51.566Z,41.05
2022-08-19T05:09:57.570Z,41.36
2022-08-19T05:10:52.558Z,41.55
2022-08-19T05:11:51.534Z,41.25
2022-08-19T05:12:51.673Z,41.95
2022-08-19T05:13:51.556Z,42.46
2022-08-19T05:14:51.594Z,42.66
2022-08-19T05:15:51.483Z,42.18
2022-08-19T05:17:02.466Z,41.77
2022-08-19T05:17:52.635Z,42.55
2022-08-19T05:18:51.497Z,42.47
2022-08-19T05:19:51.437Z,44.19
2022-08-19T05:20:51.667Z,43.08
2022-08-19T05:21:51.441Z,43.69
2022-08-19T05:22:51.470Z,44.87
2022-08-19T05:23:51.396Z,45.28
2022-08-19T05:25:11.347Z,45.07
2022-08-19T05:25:52.397Z,45.78
2022-08-19T05:26:51.363Z,45.28
2022-08-19T05:27:51.351Z,47.40
2022-08-19T05:28:54.812Z,47.60
2022-08-19T05:29:51.331Z,47.58
2022-08-19T05:30:51.315Z,48.38
2022-08-19T05:31:51.493Z,51.08
2022-08-19T05:32:51.316Z,51.68
2022-08-19T05:33:51.311Z,55.39
2022-08-19T05:34:51.276Z,54.79
2022-08-19T05:35:51.268Z,54.81
2022-08-19T05:36:51.251Z,53.90
2022-08-19T05:37:54.931Z,54.41
2022-08-19T05:38:52.271Z,53.22
2022-08-19T05:39:51.798Z,53.12
2022-08-19T05:40:51.204Z,51.61
2022-08-19T05:41:51.196Z,51.61
2022-08-19T05:42:55.043Z,53.02
2022-08-19T05:43:51.201Z,53.40
2022-08-19T05:44:51.394Z,53.72
2022-08-19T05:45:51.154Z,52.89
2022-08-19T05:46:51.142Z,53.30
2022-08-19T05:47:51.133Z,53.90
2022-08-19T05:48:51.121Z,55.08
2022-08-19T05:49:51.113Z,57.20
2022-08-19T05:50:51.105Z,56.29
2022-08-19T05:51:51.094Z,55.41
2022-08-19T05:52:51.122Z,55.21
2022-08-19T05:53:51.069Z,54.91
2022-08-19T05:54:51.647Z,56.12
2022-08-19T05:55:51.051Z,55.11
2022-08-19T05:56:51.035Z,54.41
2022-08-19T05:57:51.026Z,54.30
2022-08-19T05:58:51.013Z,55.21
2022-08-19T05:59:53.146Z,56.02
2022-08-19T06:00:50.992Z,56.72
2022-08-19T06:01:50.988Z,57.12
2022-08-19T06:02:51.107Z,56.92
2022-08-19T06:03:50.962Z,57.03
2022-08-19T06:04:50.949Z,56.62
2022-08-19T06:05:52.093Z,55.82
2022-08-19T06:06:50.934Z,55.74
2022-08-19T06:07:50.921Z,54.63
2022-08-19T06:08:50.914Z,54.83
2022-08-19T06:09:59.120Z,53.92
2022-08-19T06:10:51.917Z,52.82
2022-08-19T06:11:52.913Z,52.31
2022-08-19T06:12:50.867Z,53.02
2022-08-19T06:13:50.862Z,52.92
2022-08-19T06:15:00.556Z,52.72
2022-08-19T06:15:51.861Z,52.62
2022-08-19T06:16:50.824Z,53.12
2022-08-19T06:17:50.822Z,52.31
2022-08-19T06:18:50.809Z,52.72
2022-08-19T06:19:50.793Z,51.51
2022-08-19T06:20:55.846Z,53.12
2022-08-19T06:21:50.776Z,53.42
2022-08-19T06:22:50.856Z,53.22
2022-08-19T06:23:50.869Z,53.80
2022-08-19T06:24:50.759Z,55.41
2022-08-19T06:25:50.767Z,56.32
2022-08-19T06:26:50.725Z,57.12
2022-08-19T06:28:14.045Z,57.60
2022-08-19T06:28:51.975Z,60.22
2022-08-19T06:29:50.699Z,59.92
2022-08-19T06:30:50.967Z,62.38
2022-08-19T06:31:50.674Z,61.98
2022-08-19T06:32:50.945Z,64.16
2022-08-19T06:33:51.158Z,67.65
2022-08-19T06:34:50.645Z,70.93
2022-08-19T06:35:50.626Z,71.70
2022-08-19T06:36:50.614Z,75.88
2022-08-19T06:37:50.756Z,77.85
2022-08-19T06:38:50.588Z,78.89
2022-08-19T06:39:50.655Z,78.69
2022-08-19T06:40:50.572Z,78.35
2022-08-19T06:41:52.534Z,79.60
2022-08-19T06:42:54.852Z,79.29
2022-08-19T06:43:54.027Z,78.29
2022-08-19T06:44:53.227Z,78.96
2022-08-19T06:45:50.517Z,80.56
2022-08-19T06:46:54.779Z,79.39
2022-08-19T06:47:50.523Z,79.86
2022-08-19T06:48:50.523Z,79.86
2022-08-19T06:49:50.472Z,80.12
2022-08-19T06:50:50.459Z,82.59
2022-08-19T06:51:50.454Z,84.05
2022-08-19T06:52:50.915Z,85.61
2022-08-19T06:54:56.355Z,86.77
2022-08-19T06:55:51.553Z,87.07
2022-08-19T06:56:50.393Z,87.63
2022-08-19T06:57:50.526Z,89.19
2022-08-19T06:58:50.371Z,88.89
2022-08-19T06:59:50.359Z,89.29
2022-08-19T07:00:50.353Z,89.29
2022-08-19T07:01:50.647Z,89.95
2022-08-19T07:02:55.856Z,89.51
2022-08-19T07:03:51.351Z,89.90
2022-08-19T07:04:52.853Z,89.82
2022-08-19T07:05:50.298Z,90.81
2022-08-19T07:06:55.018Z,91.26
2022-08-19T07:07:51.008Z,90.50
2022-08-19T07:08:50.535Z,90.36
2022-08-19T07:09:57.310Z,90.62
2022-08-19T07:10:51.284Z,91.07
2022-08-19T07:11:50.248Z,91.17
2022-08-19T07:12:50.364Z,91.31
2022-08-19T07:13:50.239Z,91.02
2022-08-19T07:14:50.221Z,91.22
2022-08-19T07:15:50.192Z,91.53
2022-08-19T07:16:50.187Z,91.74
2022-08-19T07:17:52.402Z,91.24
2022-08-19T07:18:50.162Z,91.43
2022-08-19T07:19:50.148Z,91.17
2022-08-19T07:20:50.138Z,91.16
2022-08-19T07:21:50.495Z,91.06
2022-08-19T07:22:50.119Z,91.13
2022-08-19T07:23:50.109Z,91.58
2022-08-19T07:24:51.155Z,91.54
2022-08-19T07:25:52.483Z,90.70
2022-08-19T07:26:51.835Z,88.76
2022-08-19T07:27:54.355Z,88.57
2022-08-19T07:28:52.804Z,88.58
2022-08-19T07:29:56.035Z,87.54
2022-08-19T07:30:50.041Z,85.60
2022-08-19T07:31:50.018Z,84.06
2022-08-19T07:32:50.014Z,83.57
2022-08-19T07:33:49.999Z,87.09
2022-08-19T07:34:49.997Z,85.66
2022-08-19T07:35:49.986Z,84.92
2022-08-19T07:36:49.986Z,81.45
2022-08-19T07:37:50.008Z,83.85
2022-08-19T07:38:49.949Z,87.93
2022-08-19T07:39:50.059Z,84.94
2022-08-19T07:40:49.926Z,87.65
2022-08-19T07:41:49.917Z,88.71
2022-08-19T07:42:49.903Z,86.79
2022-08-19T07:43:49.891Z,84.01
2022-08-19T07:44:50.623Z,85.70
2022-08-19T07:45:49.868Z,80.13
2022-08-19T07:46:51.554Z,81.09
2022-08-19T07:47:58.626Z,77.37
2022-08-19T07:48:50.878Z,76.25
2022-08-19T07:49:49.838Z,72.97
2022-08-19T07:50:49.816Z,69.76
2022-08-19T07:51:49.805Z,69.53
2022-08-19T07:52:49.815Z,67.80
2022-08-19T07:53:49.787Z,64.70
2022-08-19T07:54:49.777Z,65.49
2022-08-19T07:55:49.762Z,67.18
2022-08-19T07:56:49.754Z,64.60
2022-08-19T07:57:49.748Z,66.28
2022-08-19T07:58:49.802Z,62.99
2022-08-19T07:59:49.741Z,62.19
2022-08-19T08:00:49.717Z,62.72
2022-08-19T08:01:49.766Z,64.14
2022-08-19T08:02:49.760Z,66.28
2022-08-19T08:03:49.680Z,68.70
2022-08-19T08:04:49.669Z,65.49
2022-08-19T08:05:49.659Z,67.01
2022-08-19T08:06:49.649Z,67.80
2022-08-19T08:07:49.639Z,65.78
2022-08-19T08:08:49.629Z,64.10
2022-08-19T08:09:50.217Z,68.30
2022-08-19T08:10:52.970Z,67.83
2022-08-19T08:11:49.594Z,69.53
2022-08-19T08:13:09.879Z,69.96
2022-08-19T08:14:00.800Z,71.84
2022-08-19T08:14:50.596Z,70.59
2022-08-19T08:15:49.619Z,72.11
2022-08-19T08:16:49.563Z,71.55
2022-08-19T08:17:51.700Z,73.08
2022-08-19T08:18:50.646Z,75.76
2022-08-19T08:19:49.512Z,76.46
2022-08-19T08:20:49.504Z,76.86
2022-08-19T08:21:49.503Z,80.29
2022-08-19T08:22:49.533Z,81.88
2022-08-19T08:23:51.051Z,83.51
2022-08-19T08:24:49.460Z,81.52
2022-08-19T08:25:49.497Z,81.66
2022-08-19T08:26:52.130Z,82.95
2022-08-19T08:27:50.517Z,84.79
2022-08-19T08:28:49.739Z,85.99
2022-08-19T08:29:49.407Z,86.84
2022-08-19T08:30:50.755Z,84.25
2022-08-19T08:31:49.388Z,81.62
2022-08-19T08:32:50.601Z,82.97
2022-08-19T08:33:49.440Z,80.38
2022-08-19T08:34:52.525Z,80.78
2022-08-19T08:35:49.438Z,80.65
2022-08-19T08:36:49.334Z,82.43
2022-08-19T08:37:51.090Z,82.40
2022-08-19T08:38:49.367Z,77.32
2022-08-19T08:39:49.370Z,75.73
2022-08-19T08:40:49.293Z,77.22
2022-08-19T08:41:49.281Z,75.03
2022-08-19T08:42:49.289Z,74.50
2022-08-19T08:43:49.270Z,75.79
2022-08-19T08:44:49.279Z,71.78
2022-08-19T08:45:53.533Z,66.11
2022-08-19T08:46:49.232Z,63.08
2022-08-19T08:47:49.218Z,59.75
2022-08-19T08:48:52.644Z,57.29
2022-08-19T08:49:51.375Z,56.67
2022-08-19T08:50:49.190Z,57.10
2022-08-19T08:51:56.099Z,54.97
2022-08-19T08:52:50.712Z,52.41
2022-08-19T08:53:49.193Z,53.64
2022-08-19T08:54:55.319Z,53.12
2022-08-19T08:55:50.162Z,52.85
2022-08-19T08:56:49.133Z,50.49
2022-08-19T08:57:49.124Z,50.36
2022-08-19T08:58:54.298Z,49.06
2022-08-19T08:59:49.094Z,49.72
2022-08-19T09:00:49.086Z,50.56
2022-08-19T09:01:49.129Z,50.51
2022-08-19T09:02:50.436Z,48.88
2022-08-19T09:03:49.073Z,48.76
2022-08-19T09:04:49.489Z,48.57
2022-08-19T09:05:49.037Z,47.50
2022-08-19T09:06:49.025Z,48.14
2022-08-19T09:07:49.175Z,49.05
2022-08-19T09:08:49.005Z,48.54
2022-08-19T09:09:49.002Z,47.16
2022-08-19T09:10:48.991Z,48.02
2022-08-19T09:11:49.084Z,48.19
2022-08-19T09:12:48.989Z,47.11
2022-08-19T09:13:48.956Z,46.87
2022-08-19T09:14:51.567Z,46.37
2022-08-19T09:15:48.935Z,46.57
2022-08-19T09:16:48.926Z,46.89
2022-08-19T09:17:52.285Z,46.45
2022-08-19T09:18:48.904Z,46.35
2022-08-19T09:19:48.896Z,46.72
2022-08-19T09:20:48.885Z,44.91
2022-08-19T09:21:48.898Z,43.71
2022-08-19T09:22:48.900Z,43.88
2022-08-19T09:23:50.892Z,43.37
2022-08-19T09:24:48.851Z,42.94
2022-08-19T09:25:48.842Z,41.84
2022-08-19T09:26:52.747Z,42.35
2022-08-19T09:27:48.817Z,41.78
2022-08-19T09:28:49.017Z,43.26
2022-08-19T09:29:48.800Z,43.33
2022-08-19T09:30:48.824Z,42.96
2022-08-19T09:31:48.787Z,42.91
2022-08-19T09:32:52.964Z,43.12
2022-08-19T09:33:48.757Z,41.70
2022-08-19T09:34:51.509Z,42.74
2022-08-19T09:35:53.177Z,42.86
2022-08-19T09:36:48.732Z,42.57
2022-08-19T09:37:48.734Z,43.27
2022-08-19T09:38:48.732Z,43.26
2022-08-19T09:39:48.774Z,42.37
2022-08-19T09:40:48.851Z,42.88
2022-08-19T09:41:49.178Z,43.24
2022-08-19T09:42:50.124Z,43.77
2022-08-19T09:43:48.666Z,43.83
2022-08-19T09:44:48.659Z,43.32
2022-08-19T09:45:48.644Z,42.21
2022-08-19T09:46:48.639Z,43.05
2022-08-19T09:47:48.629Z,42.23
2022-08-19T09:48:48.642Z,41.56
2022-08-19T09:49:48.624Z,41.47
2022-08-19T09:50:51.676Z,41.25
2022-08-19T09:51:51.192Z,40.76
2022-08-19T09:52:54.122Z,41.49
2022-08-19T09:53:48.577Z,41.88
2022-08-19T09:54:52.070Z,41.56
2022-08-19T09:55:48.559Z,41.76
2022-08-19T09:56:48.546Z,41.35
2022-08-19T09:57:48.539Z,41.05
2022-08-19T09:58:48.529Z,41.27
2022-08-19T09:59:48.538Z,41.39
2022-08-19T10:00:50.910Z,41.51
2022-08-19T10:01:48.544Z,41.82
2022-08-19T10:02:48.502Z,42.88
2022-08-19T10:03:48.488Z,42.32
2022-08-19T10:04:48.478Z,41.72
2022-08-19T10:05:48.885Z,42.19
2022-08-19T10:06:48.467Z,41.80
2022-08-19T10:07:48.556Z,41.39
2022-08-19T10:08:49.905Z,41.61
2022-08-19T10:09:48.553Z,41.31
2022-08-19T10:10:48.419Z,41.78
2022-08-19T10:11:54.645Z,40.58
2022-08-19T10:12:48.822Z,39.39
2022-08-19T10:13:48.392Z,40.08
2022-08-19T10:14:48.384Z,39.62
2022-08-19T10:15:49.511Z,40.66
2022-08-19T10:16:48.369Z,41.78
2022-08-19T10:17:55.021Z,41.74
2022-08-19T10:18:49.694Z,40.53
2022-08-19T10:19:53.388Z,40.61
2022-08-19T10:20:51.696Z,40.13
2022-08-19T10:21:48.320Z,41.51
2022-08-19T10:22:48.310Z,39.92
2022-08-19T10:23:48.301Z,39.09
2022-08-19T10:24:48.292Z,38.12
2022-08-19T10:25:48.343Z,38.18
2022-08-19T10:26:48.269Z,37.49
2022-08-19T10:27:51.462Z,37.10
2022-08-19T10:28:48.252Z,37.92
2022-08-19T10:29:48.257Z,37.96
2022-08-19T10:30:48.231Z,37.65
2022-08-19T10:32:01.296Z,37.47
2022-08-19T10:32:49.236Z,37.98
2022-08-19T10:33:53.420Z,37.98
2022-08-19T10:34:49.171Z,36.87
2022-08-19T10:35:56.753Z,37.93
2022-08-19T10:36:56.027Z,37.32
2022-08-19T10:37:57.108Z,37.06
2022-08-19T10:38:51.220Z,36.77
2022-08-19T10:39:48.204Z,36.87
2022-08-19T10:40:48.138Z,37.26
2022-08-19T10:41:48.126Z,36.59
2022-08-19T10:42:48.116Z,36.20
2022-08-19T10:43:48.106Z,36.57
2022-08-19T10:44:48.097Z,37.02
2022-08-19T10:45:52.468Z,34.97
2022-08-19T10:46:48.978Z,34.96
2022-08-19T10:47:48.267Z,35.36
2022-08-19T10:48:48.096Z,35.46
2022-08-19T10:49:48.064Z,35.06
2022-08-19T10:50:48.044Z,34.77
2022-08-19T10:51:48.678Z,35.25
2022-08-19T10:52:50.267Z,34.18
2022-08-19T10:53:48.035Z,34.68
2022-08-19T10:54:48.006Z,34.57
2022-08-19T10:55:48.024Z,34.19
2022-08-19T10:56:48.188Z,35.77
2022-08-19T10:58:01.886Z,35.69
2022-08-19T10:58:48.989Z,35.58
2022-08-19T10:59:48.036Z,35.40
2022-08-19T11:00:48.011Z,34.45
2022-08-19T11:01:47.938Z,35.44
2022-08-19T11:02:47.928Z,34.64
2022-08-19T11:03:47.919Z,33.15
2022-08-19T11:04:47.909Z,33.17
2022-08-19T11:05:47.902Z,32.20
2022-08-19T11:06:47.893Z,32.30
2022-08-19T11:07:47.950Z,32.70
2022-08-19T11:08:47.871Z,32.79
2022-08-19T11:09:47.861Z,32.09
2022-08-19T11:10:50.408Z,32.29
2022-08-19T11:11:47.857Z,32.51
2022-08-19T11:12:47.835Z,33.12
2022-08-19T11:13:47.876Z,33.72
2022-08-19T11:14:47.812Z,34.31
2022-08-19T11:15:47.806Z,34.78
2022-08-19T11:16:47.794Z,35.57
2022-08-19T11:17:47.897Z,35.76
2022-08-19T11:18:47.776Z,34.75
2022-08-19T11:19:47.770Z,33.77
2022-08-19T11:20:47.757Z,34.05
2022-08-19T11:21:47.749Z,33.23
2022-08-19T11:22:47.762Z,32.23
2022-08-19T11:23:47.754Z,31.31
2022-08-19T11:24:47.716Z,30.99
2022-08-19T11:25:47.708Z,30.41
2022-08-19T11:26:47.706Z,29.79
2022-08-19T11:27:47.717Z,30.09
2022-08-19T11:28:47.682Z,31.26
2022-08-19T11:29:47.675Z,32.21
2022-08-19T11:30:47.677Z,31.25
2022-08-19T11:31:47.718Z,31.26
2022-08-19T11:32:49.549Z,31.20
2022-08-19T11:33:48.113Z,31.16
2022-08-19T11:34:47.849Z,30.38
2022-08-19T11:35:47.764Z,31.00
2022-08-19T11:36:47.686Z,31.78
2022-08-19T11:37:47.812Z,31.77
2022-08-19T11:38:47.592Z,31.08
2022-08-19T11:39:51.873Z,30.38
2022-08-19T11:40:47.582Z,30.96
2022-08-19T11:41:47.564Z,31.46
2022-08-19T11:42:47.557Z,31.04
2022-08-19T11:43:47.547Z,30.13
2022-08-19T11:44:47.543Z,29.43
2022-08-19T11:45:47.543Z,29.95
2022-08-19T11:46:47.518Z,30.13
2022-08-19T11:47:47.505Z,30.24
2022-08-19T11:48:47.498Z,31.00
2022-08-19T11:49:47.487Z,31.88
2022-08-19T11:50:47.480Z,30.79
2022-08-19T11:51:47.482Z,31.48
2022-08-19T11:52:47.482Z,30.48
2022-08-19T11:53:47.452Z,31.26
2022-08-19T11:54:47.547Z,30.06
2022-08-19T11:55:47.480Z,30.74
2022-08-19T11:56:47.430Z,30.77
2022-08-19T11:57:47.460Z,30.68
2022-08-19T11:58:47.407Z,31.75
2022-08-19T11:59:47.430Z,31.43
2022-08-19T12:00:47.382Z,30.84
2022-08-19T12:01:47.377Z,31.67
2022-08-19T12:02:47.367Z,32.97
2022-08-19T12:03:47.425Z,33.65
2022-08-19T12:04:47.363Z,34.06
2022-08-19T12:05:47.355Z,33.48
2022-08-19T12:06:47.326Z,34.03
2022-08-19T12:07:47.375Z,32.65
2022-08-19T12:08:47.313Z,31.33
2022-08-19T12:09:48.592Z,29.61
2022-08-19T12:10:47.286Z,29.11
2022-08-19T12:11:47.786Z,30.18
2022-08-19T12:12:54.667Z,30.70
2022-08-19T12:13:48.360Z,31.59
2022-08-19T12:14:47.330Z,30.24
2022-08-19T12:15:47.244Z,30.24
2022-08-19T12:16:51.372Z,31.64
2022-08-19T12:17:47.214Z,31.98
2022-08-19T12:18:47.204Z,32.81
2022-08-19T12:19:47.196Z,32.68
2022-08-19T12:20:47.187Z,32.61
2022-08-19T12:21:47.175Z,32.79
2022-08-19T12:22:47.358Z,30.72
2022-08-19T12:23:47.186Z,31.10
2022-08-19T12:24:47.255Z,31.46
2022-08-19T12:25:47.157Z,29.96
2022-08-19T12:26:53.346Z,28.11
2022-08-19T12:27:56.780Z,28.83
2022-08-19T12:28:47.163Z,30.72
2022-08-19T12:29:47.107Z,30.35
2022-08-19T12:30:47.096Z,31.13
2022-08-19T12:31:47.123Z,31.84
2022-08-19T12:32:47.084Z,32.06
2022-08-19T12:33:47.062Z,31.86
2022-08-19T12:34:47.051Z,31.84
2022-08-19T12:35:47.044Z,29.70
2022-08-19T12:36:47.034Z,29.87
2022-08-19T12:37:53.554Z,30.41
2022-08-19T12:38:48.040Z,29.02
2022-08-19T12:39:47.049Z,28.74
2022-08-19T12:40:47.018Z,28.34
2022-08-19T12:41:55.052Z,29.41
2022-08-19T12:42:46.979Z,29.39
2022-08-19T12:43:46.967Z,29.46
2022-08-19T12:44:46.959Z,29.82
2022-08-19T12:45:47.022Z,29.61
2022-08-19T12:46:46.949Z,29.14
2022-08-19T12:47:46.929Z,29.71
2022-08-19T12:48:46.916Z,29.22
2022-08-19T12:49:53.573Z,29.82
2022-08-19T12:50:47.924Z,30.32
2022-08-19T12:51:46.892Z,29.92
2022-08-19T12:52:46.911Z,30.18
2022-08-19T12:53:46.867Z,29.50